Nearby METAR Reports

 

KMHT - Manchester, New Hampshire, USA
Distance from station: W 16mi, 26km
Updated: Tue, 19-Sep-2017 9:53pm EDT
Overcast
Overcast
 Wind from NNE
Wind: NNE 10 mph , 17 km/h
Temperature: 66°F , 19°C
Dew Point: 64°F , 18°C
Humidity: 94%
Barometer: 30.02 inHg , 1016.6 hPa
Clouds: Overcast
Visibility: 10 miles , 16 km
Cloud details: Overcast 800 ft
2017/09/20 01:53 KMHT 200153Z 03009KT 10SM OVC008 19/18 A3002 RMK AO2 SLP177 T01940183
KPSM - Portsmouth/Pease, New Hampshire, USA
Distance from station: ENE 17mi, 27km
Updated: Tue, 19-Sep-2017 9:58pm EDT
Mist, Overcast
Mist, Overcast
 Wind from NE
Wind: NE 10 mph , 17 km/h
Temperature: 64°F , 18°C
Dew Point: 64°F , 18°C
Humidity: 100%
Barometer: 30.03 inHg , 1016.9 hPa
Summary: Mist
Clouds: Overcast
Visibility: 1 1/4 miles , 2 km
Cloud details: Overcast 200 ft
2017/09/20 01:58 KPSM 200158Z 04009KT 1 1/4SM BR OVC002 18/18 A3003 RMK AO2A SLP171 T01780178 CHINO RWY16 $
 
KASH - Nashua/Boire Fld, New Hampshire, USA
Distance from station: WSW 24mi, 38km
Updated: Tue, 19-Sep-2017 9:56pm EDT
Overcast
Overcast
 Wind from varies
Wind: varies 5 mph , 7 km/h
Temperature: 66°F , 19°C
Dew Point: 66°F , 19°C
Humidity: 100%
Barometer: 30.04 inHg , 1017.3 hPa
Clouds: Overcast
Visibility: 10 miles , 16 km
Cloud details: Overcast 800 ft
2017/09/20 01:56 KASH 200156Z AUTO VRB04KT 10SM OVC008 19/19 A3004 RMK AO2 SLP180 T01940189
KDAW - Rochester, New Hampshire, USA
Distance from station: NNE 24mi, 39km
Updated: Tue, 19-Sep-2017 9:51pm EDT
Overcast
Overcast
 Wind from NNE
Wind: NNE 7 mph , 11 km/h
Temperature: 66°F , 19°C
Dew Point: 63°F , 17°C
Humidity: 88%
Barometer: 30.05 inHg , 1017.6 hPa
Clouds: Overcast
Visibility: 10 miles , 16 km
Cloud details: Overcast 500 ft
2017/09/20 01:51 KDAW 200151Z AUTO 02006KT 10SM OVC005 19/17 A3005 RMK AO2 SLP172 T01890172